createdAt,value
2022-09-21T00:01:05.828Z,6.38
2022-09-21T00:03:32.127Z,4.78
2022-09-21T00:06:02.405Z,7.50
2022-09-21T00:08:28.685Z,6.40
2022-09-21T00:10:54.967Z,6.53
2022-09-21T00:13:21.345Z,6.82
2022-09-21T00:15:47.733Z,8.00
2022-09-21T00:18:14.116Z,9.25
2022-09-21T00:20:43.594Z,5.28
2022-09-21T00:23:10.035Z,6.18
2022-09-21T00:25:36.305Z,5.43
2022-09-21T00:28:02.643Z,6.45
2022-09-21T00:30:28.905Z,8.68
2022-09-21T00:32:55.198Z,7.00
2022-09-21T00:35:21.492Z,7.72
2022-09-21T00:37:47.778Z,4.40
2022-09-21T00:40:14.079Z,6.30
2022-09-21T00:42:40.400Z,5.40
2022-09-21T00:45:06.920Z,10.65
2022-09-21T00:47:33.305Z,9.35
2022-09-21T00:50:00.544Z,7.88
2022-09-21T00:52:28.338Z,10.75
2022-09-21T00:54:56.084Z,7.07
2022-09-21T00:57:24.294Z,10.50
2022-09-21T00:59:51.669Z,6.68
2022-09-21T01:02:18.300Z,10.43
2022-09-21T01:04:45.623Z,11.55
2022-09-21T01:07:14.429Z,6.00
2022-09-21T01:09:42.017Z,8.57
2022-09-21T01:12:27.305Z,8.82
2022-09-21T01:14:58.808Z,7.82
2022-09-21T01:17:25.270Z,9.00
2022-09-21T01:20:27.039Z,7.10
2022-09-21T01:22:53.295Z,8.25
2022-09-21T01:25:24.119Z,9.15
2022-09-21T01:28:09.168Z,4.80
2022-09-21T01:30:37.858Z,5.88
2022-09-21T01:33:33.440Z,6.45
2022-09-21T01:36:01.701Z,7.68
2022-09-21T01:38:30.779Z,8.32
2022-09-21T01:41:02.241Z,8.10
2022-09-21T01:43:32.353Z,6.82
2022-09-21T01:46:02.011Z,9.55
2022-09-21T01:48:30.981Z,7.90
2022-09-21T01:50:57.864Z,7.32
2022-09-21T01:53:28.363Z,6.45
2022-09-21T01:55:59.680Z,5.88
2022-09-21T01:58:25.952Z,6.25
2022-09-21T02:00:54.481Z,4.50
2022-09-21T02:03:29.945Z,5.60
2022-09-21T02:05:57.152Z,10.95
2022-09-21T02:08:26.624Z,4.97
2022-09-21T02:10:53.582Z,5.35
2022-09-21T02:13:21.472Z,7.03
2022-09-21T02:15:57.824Z,7.10
2022-09-21T02:18:33.223Z,7.13
2022-09-21T02:21:00.598Z,4.63
2022-09-21T02:23:32.712Z,5.60
2022-09-21T02:26:06.550Z,4.78
2022-09-21T02:28:38.265Z,10.73
2022-09-21T02:31:23.408Z,9.40
2022-09-21T02:33:49.673Z,4.75
2022-09-21T02:36:21.483Z,5.82
2022-09-21T02:38:51.746Z,5.22
2022-09-21T02:41:25.980Z,5.70
2022-09-21T02:44:04.023Z,6.70
2022-09-21T02:46:36.419Z,6.70
2022-09-21T02:49:09.073Z,5.65
2022-09-21T02:51:50.246Z,7.40
2022-09-21T02:54:18.009Z,7.78
2022-09-21T02:56:46.378Z,7.65
2022-09-21T02:59:14.032Z,7.05
2022-09-21T03:01:40.512Z,7.43
2022-09-21T03:04:06.992Z,4.60
2022-09-21T03:06:34.021Z,3.72
2022-09-21T03:09:00.398Z,7.40
2022-09-21T03:11:26.658Z,4.95
2022-09-21T03:13:53.045Z,10.73
2022-09-21T03:16:19.486Z,11.60
2022-09-21T03:18:45.785Z,9.10
2022-09-21T03:21:12.660Z,5.05
2022-09-21T03:23:39.374Z,12.35
2022-09-21T03:26:05.822Z,7.25
2022-09-21T03:28:32.089Z,4.90
2022-09-21T03:30:58.435Z,9.00
2022-09-21T03:33:26.116Z,7.80
2022-09-21T03:35:52.481Z,5.18
2022-09-21T03:38:19.053Z,5.63
2022-09-21T03:40:48.984Z,7.55
2022-09-21T03:43:15.400Z,5.18
2022-09-21T03:45:42.561Z,9.35
2022-09-21T03:48:09.944Z,6.10
2022-09-21T03:50:36.351Z,13.40
2022-09-21T03:53:02.757Z,6.10
2022-09-21T03:55:29.801Z,4.53
2022-09-21T03:57:56.101Z,9.27
2022-09-21T04:00:22.355Z,10.93
2022-09-21T04:02:48.651Z,7.57
2022-09-21T04:05:15.627Z,8.70
2022-09-21T04:07:42.818Z,6.05
2022-09-21T04:10:12.904Z,8.65
2022-09-21T04:12:43.612Z,9.40
2022-09-21T04:15:14.422Z,9.32
2022-09-21T04:17:41.043Z,7.07
2022-09-21T04:20:08.718Z,7.85
2022-09-21T04:22:42.700Z,5.53
2022-09-21T04:25:10.480Z,5.93
2022-09-21T04:27:36.749Z,7.93
2022-09-21T04:30:03.112Z,8.20
2022-09-21T04:32:29.379Z,7.10
2022-09-21T04:34:55.740Z,6.88
2022-09-21T04:37:22.091Z,8.65
2022-09-21T04:39:48.382Z,8.73
2022-09-21T04:42:14.799Z,9.30
2022-09-21T04:44:41.150Z,8.88
2022-09-21T04:47:07.429Z,8.35
2022-09-21T04:49:33.877Z,9.45
2022-09-21T04:52:00.313Z,8.02
2022-09-21T04:54:26.996Z,7.47
2022-09-21T04:56:53.264Z,8.60
2022-09-21T04:59:19.621Z,5.90
2022-09-21T05:01:45.919Z,9.63
2022-09-21T05:04:12.261Z,7.90
2022-09-21T05:06:38.560Z,8.15
2022-09-21T05:09:23.711Z,9.35
2022-09-21T05:11:50.132Z,7.95
2022-09-21T05:14:16.424Z,9.73
2022-09-21T05:16:42.704Z,10.50
2022-09-21T05:19:09.048Z,6.95
2022-09-21T05:21:36.369Z,10.07
2022-09-21T05:24:02.869Z,6.85
2022-09-21T05:26:29.113Z,10.13
2022-09-21T05:28:55.563Z,8.52
2022-09-21T05:31:40.750Z,7.38
2022-09-21T05:34:20.528Z,6.75
2022-09-21T05:37:02.519Z,5.22
2022-09-21T05:39:28.996Z,12.68
2022-09-21T05:41:55.565Z,8.52
2022-09-21T05:44:22.101Z,9.10
2022-09-21T05:47:01.476Z,10.32
2022-09-21T05:49:46.719Z,12.75
2022-09-21T05:52:31.421Z,10.23
2022-09-21T05:55:09.917Z,7.53
2022-09-21T05:57:45.052Z,9.70
2022-09-21T06:00:17.875Z,10.30
2022-09-21T06:02:44.142Z,9.35
2022-09-21T06:05:11.512Z,5.97
2022-09-21T06:07:37.800Z,7.40
2022-09-21T06:10:04.248Z,9.73
2022-09-21T06:12:30.516Z,9.85
2022-09-21T06:14:56.876Z,8.07
2022-09-21T06:17:23.166Z,10.00
2022-09-21T06:19:49.404Z,9.43
2022-09-21T06:22:15.693Z,12.10
2022-09-21T06:24:41.949Z,7.93
2022-09-21T06:27:08.199Z,7.70
2022-09-21T06:29:34.480Z,10.75
2022-09-21T06:32:01.599Z,6.47
2022-09-21T06:34:27.936Z,11.02
2022-09-21T06:36:54.237Z,6.05
2022-09-21T06:39:20.532Z,6.57
2022-09-21T06:41:46.821Z,3.90
2022-09-21T06:44:13.122Z,4.00
2022-09-21T06:46:39.473Z,4.85
2022-09-21T06:49:05.789Z,3.72
2022-09-21T06:51:32.106Z,5.63
2022-09-21T06:53:58.372Z,3.55
2022-09-21T06:56:25.340Z,3.00
2022-09-21T06:58:52.488Z,4.10
2022-09-21T07:01:19.221Z,4.07
2022-09-21T07:03:48.397Z,3.65
2022-09-21T07:06:15.623Z,5.50
2022-09-21T07:11:28.902Z,4.75
2022-09-21T07:13:56.040Z,6.57
2022-09-21T07:16:23.262Z,4.60
2022-09-21T07:18:50.010Z,4.90
2022-09-21T07:21:16.706Z,3.47
2022-09-21T07:23:43.049Z,3.58
2022-09-21T07:26:10.632Z,4.38
2022-09-21T07:28:37.367Z,4.35
2022-09-21T07:31:08.673Z,5.38
2022-09-21T07:33:36.324Z,5.10
2022-09-21T07:36:09.801Z,4.53
2022-09-21T07:38:37.360Z,9.48
2022-09-21T07:41:03.721Z,4.50
2022-09-21T07:43:30.013Z,4.32
2022-09-21T07:45:56.601Z,2.72
2022-09-21T07:48:23.039Z,4.60
2022-09-21T07:50:49.620Z,8.82
2022-09-21T07:53:16.977Z,2.88
2022-09-21T07:55:43.991Z,11.13
2022-09-21T07:58:29.005Z,3.63
2022-09-21T08:00:55.438Z,6.53
2022-09-21T08:03:21.792Z,3.88
2022-09-21T08:05:48.101Z,4.75
2022-09-21T08:08:15.465Z,6.55
2022-09-21T08:10:41.733Z,3.58
2022-09-21T08:13:08.025Z,5.65
2022-09-21T08:15:50.435Z,5.85
2022-09-21T08:18:16.863Z,5.72
2022-09-21T08:20:43.981Z,3.45
2022-09-21T08:23:10.776Z,6.30
2022-09-21T08:25:37.116Z,5.10
2022-09-21T08:28:08.828Z,5.85
2022-09-21T08:30:36.037Z,4.27
2022-09-21T08:33:03.416Z,3.08
2022-09-21T08:35:29.705Z,4.25
2022-09-21T08:37:56.042Z,3.95
2022-09-21T08:40:22.529Z,5.40
2022-09-21T08:42:56.073Z,5.65
2022-09-21T08:45:24.377Z,4.63
2022-09-21T08:47:52.751Z,4.93
2022-09-21T08:50:22.103Z,4.53
2022-09-21T08:52:52.704Z,2.83
2022-09-21T08:55:20.087Z,3.20
2022-09-21T08:57:46.448Z,3.70
2022-09-21T09:00:13.870Z,4.57
2022-09-21T09:02:59.106Z,2.47
2022-09-21T09:05:38.378Z,5.53
2022-09-21T09:08:07.670Z,4.03
2022-09-21T09:10:38.563Z,5.05
2022-09-21T09:13:20.085Z,4.50
2022-09-21T09:16:15.939Z,4.45
2022-09-21T09:19:16.001Z,5.22
2022-09-21T09:21:43.027Z,8.68
2022-09-21T09:24:21.616Z,6.03
2022-09-21T09:26:56.428Z,4.82
2022-09-21T09:29:28.700Z,3.40
2022-09-21T09:31:55.697Z,3.72
2022-09-21T09:34:24.894Z,5.22
2022-09-21T09:36:58.786Z,6.05
2022-09-21T09:39:27.966Z,3.95
2022-09-21T09:42:00.505Z,5.82
2022-09-21T09:44:27.598Z,6.60
2022-09-21T09:46:53.980Z,3.03
2022-09-21T09:49:20.366Z,2.83
2022-09-21T09:51:47.893Z,3.75
2022-09-21T09:54:15.525Z,2.67
2022-09-21T09:56:42.101Z,4.65
2022-09-21T09:59:38.009Z,4.75
2022-09-21T10:02:06.058Z,3.35
2022-09-21T10:04:34.639Z,3.42
2022-09-21T10:07:01.251Z,3.45
2022-09-21T10:09:31.807Z,5.97
2022-09-21T10:12:15.814Z,4.13
2022-09-21T10:14:48.256Z,3.33
2022-09-21T10:17:16.218Z,5.33
2022-09-21T10:19:42.721Z,4.15
2022-09-21T10:22:15.054Z,5.40
2022-09-21T10:24:46.355Z,3.72
2022-09-21T10:27:13.837Z,2.63
2022-09-21T10:29:45.758Z,6.50
2022-09-21T10:32:14.611Z,4.50
2022-09-21T10:34:42.050Z,5.50
2022-09-21T10:37:23.733Z,3.47
2022-09-21T10:39:50.031Z,2.63
2022-09-21T10:42:17.924Z,2.42
2022-09-21T10:44:45.156Z,3.00
2022-09-21T10:47:19.591Z,3.05
2022-09-21T10:49:53.466Z,2.78
2022-09-21T10:52:21.048Z,3.03
2022-09-21T10:54:48.561Z,3.13
2022-09-21T10:57:17.025Z,2.95
2022-09-21T10:59:44.592Z,3.03
2022-09-21T11:02:29.550Z,1.65
2022-09-21T11:04:59.197Z,1.83
2022-09-21T11:07:32.080Z,2.35
2022-09-21T11:10:00.765Z,2.17
2022-09-21T11:12:35.199Z,3.53
2022-09-21T11:15:11.755Z,4.47
2022-09-21T11:17:44.881Z,2.60
2022-09-21T11:20:11.173Z,5.80
2022-09-21T11:22:43.888Z,2.33
2022-09-21T11:25:10.993Z,2.47
2022-09-21T11:27:39.622Z,3.97
2022-09-21T11:30:07.092Z,1.90
2022-09-21T11:32:37.120Z,2.80
2022-09-21T11:35:09.600Z,1.77
2022-09-21T11:37:45.669Z,3.97
2022-09-21T11:40:11.952Z,3.25
2022-09-21T11:42:47.510Z,2.88
2022-09-21T11:45:22.380Z,2.40
2022-09-21T11:48:06.763Z,4.32
2022-09-21T11:53:16.070Z,2.65
2022-09-21T11:56:01.109Z,1.92
2022-09-21T11:58:31.748Z,2.10
2022-09-21T12:00:58.975Z,4.43
2022-09-21T12:03:40.600Z,1.92
2022-09-21T12:06:13.852Z,2.53
2022-09-21T12:08:49.228Z,3.67
2022-09-21T12:11:27.248Z,4.30
2022-09-21T12:13:58.391Z,3.25
2022-09-21T12:16:38.623Z,3.67
2022-09-21T12:19:11.037Z,2.78
2022-09-21T12:21:40.482Z,1.65
2022-09-21T12:24:12.808Z,4.25
2022-09-21T12:26:41.495Z,3.83
2022-09-21T12:29:14.112Z,1.35
2022-09-21T12:31:40.352Z,2.05
2022-09-21T12:34:15.476Z,1.80
2022-09-21T12:36:50.366Z,2.20
2022-09-21T12:39:32.742Z,3.47
2022-09-21T12:42:04.981Z,2.55
2022-09-21T12:44:51.818Z,1.35
2022-09-21T12:47:29.736Z,4.22
2022-09-21T12:50:05.755Z,1.65
2022-09-21T12:52:32.984Z,2.85
2022-09-21T12:55:17.369Z,2.08
2022-09-21T12:58:15.904Z,4.03
2022-09-21T13:00:53.800Z,2.78
2022-09-21T13:03:35.381Z,1.08
2022-09-21T13:06:09.121Z,1.77
2022-09-21T13:08:38.505Z,4.28
2022-09-21T13:11:07.599Z,1.98
2022-09-21T13:13:36.835Z,3.55
2022-09-21T13:16:05.259Z,1.77
2022-09-21T13:18:36.242Z,1.70
2022-09-21T13:21:15.240Z,1.98
2022-09-21T13:23:42.162Z,1.17
2022-09-21T13:26:09.977Z,2.33
2022-09-21T13:28:41.545Z,1.88
2022-09-21T13:31:30.106Z,2.05
2022-09-21T13:34:15.564Z,3.63
2022-09-21T13:36:43.133Z,1.85
2022-09-21T13:39:09.734Z,2.78
2022-09-21T13:41:58.844Z,0.82
2022-09-21T13:44:26.397Z,1.58
2022-09-21T13:46:53.613Z,0.88
2022-09-21T13:49:25.435Z,1.52
2022-09-21T13:51:54.191Z,1.77
2022-09-21T13:54:21.790Z,1.67
2022-09-21T13:56:56.950Z,2.03
2022-09-21T13:59:24.565Z,1.20
2022-09-21T14:01:50.902Z,1.33
2022-09-21T14:04:24.348Z,1.00
2022-09-21T14:06:51.689Z,2.72
2022-09-21T14:09:29.098Z,1.95
2022-09-21T14:11:57.387Z,2.50
2022-09-21T14:14:27.620Z,2.13
2022-09-21T14:16:55.683Z,2.47
2022-09-21T14:19:42.180Z,2.13
2022-09-21T14:22:08.623Z,1.10
2022-09-21T14:24:43.693Z,0.50
2022-09-21T14:27:25.186Z,1.88
2022-09-21T14:29:53.196Z,2.00
2022-09-21T14:32:24.824Z,2.05
2022-09-21T14:34:53.554Z,1.48
2022-09-21T14:37:30.337Z,1.13
2022-09-21T14:39:57.492Z,1.08
2022-09-21T14:42:27.197Z,1.00
2022-09-21T14:44:55.959Z,2.75
2022-09-21T14:47:41.010Z,1.98
2022-09-21T14:50:25.714Z,0.63
2022-09-21T14:53:01.721Z,1.67
2022-09-21T14:55:40.278Z,1.98
2022-09-21T14:58:09.584Z,1.80
2022-09-21T15:00:40.293Z,1.02
2022-09-21T15:03:06.785Z,0.75
2022-09-21T15:05:37.543Z,0.98
2022-09-21T15:08:44.797Z,1.50
2022-09-21T15:11:23.964Z,1.42
2022-09-21T15:14:05.707Z,0.93
2022-09-21T15:16:35.812Z,1.48
2022-09-21T15:19:10.793Z,1.70
2022-09-21T15:21:39.963Z,1.48
2022-09-21T15:24:26.612Z,1.17
2022-09-21T15:26:54.609Z,2.05
2022-09-21T15:29:25.729Z,1.25
2022-09-21T15:31:52.712Z,3.13
2022-09-21T15:34:19.244Z,2.33
2022-09-21T15:36:48.565Z,1.35
2022-09-21T15:39:22.596Z,1.63
2022-09-21T15:41:53.105Z,1.48
2022-09-21T15:44:23.506Z,2.08
2022-09-21T15:46:51.343Z,4.05
2022-09-21T15:49:21.161Z,0.88
2022-09-21T15:51:53.108Z,1.63
2022-09-21T15:54:32.043Z,1.35
2022-09-21T15:56:59.556Z,1.17
2022-09-21T15:59:26.144Z,1.30
2022-09-21T16:01:54.593Z,1.10
2022-09-21T16:04:22.545Z,1.70
2022-09-21T16:07:03.159Z,1.63
2022-09-21T16:09:35.620Z,2.78
2022-09-21T16:12:22.896Z,4.43
2022-09-21T16:14:55.204Z,2.28
2022-09-21T16:17:21.723Z,1.05
2022-09-21T16:19:51.512Z,1.60
2022-09-21T16:22:21.800Z,2.28
2022-09-21T16:24:50.643Z,2.67
2022-09-21T16:27:19.003Z,3.13
2022-09-21T16:29:48.603Z,2.67
2022-09-21T16:32:18.784Z,2.03
2022-09-21T16:34:48.590Z,1.95
2022-09-21T16:37:26.923Z,4.50
2022-09-21T16:39:54.696Z,1.90
2022-09-21T16:42:22.457Z,1.63
2022-09-21T16:44:49.828Z,1.70
2022-09-21T16:47:18.105Z,2.97
2022-09-21T16:49:45.035Z,1.00
2022-09-21T16:52:12.092Z,0.80
2022-09-21T16:54:39.302Z,2.00
2022-09-21T16:57:06.928Z,2.90
2022-09-21T16:59:35.177Z,3.05
2022-09-21T17:02:04.974Z,3.42
2022-09-21T17:04:33.125Z,2.75
2022-09-21T17:07:01.256Z,1.70
2022-09-21T17:09:37.970Z,2.75
2022-09-21T17:12:07.042Z,3.85
2022-09-21T17:14:37.871Z,2.58
2022-09-21T17:17:11.113Z,2.97
2022-09-21T17:19:37.815Z,4.57
2022-09-21T17:22:05.427Z,2.00
2022-09-21T17:24:49.637Z,2.97
2022-09-21T17:27:18.366Z,4.85
2022-09-21T17:29:49.687Z,1.88
2022-09-21T17:32:20.807Z,4.07
2022-09-21T17:35:06.264Z,3.97
2022-09-21T17:37:33.839Z,2.70
2022-09-21T17:40:00.992Z,3.22
2022-09-21T17:42:28.717Z,2.95
2022-09-21T17:44:59.734Z,5.38
2022-09-21T17:47:28.870Z,2.80
2022-09-21T17:49:59.298Z,3.97
2022-09-21T17:52:44.602Z,5.65
2022-09-21T17:55:12.275Z,5.10
2022-09-21T17:57:48.048Z,5.20
2022-09-21T18:00:18.158Z,2.97
2022-09-21T18:02:44.782Z,3.80
2022-09-21T18:05:27.966Z,5.13
2022-09-21T18:07:54.523Z,3.45
2022-09-21T18:10:22.057Z,3.72
2022-09-21T18:13:24.460Z,2.13
2022-09-21T18:16:03.939Z,3.97
2022-09-21T18:18:40.804Z,3.45
2022-09-21T18:21:10.904Z,3.00
2022-09-21T18:23:44.774Z,5.05
2022-09-21T18:26:18.512Z,4.00
2022-09-21T18:28:46.804Z,4.82
2022-09-21T18:31:17.240Z,3.65
2022-09-21T18:34:02.866Z,6.30
2022-09-21T18:36:32.476Z,7.10
2022-09-21T18:39:02.349Z,6.57
2022-09-21T18:41:36.534Z,7.00
2022-09-21T18:44:09.347Z,4.18
2022-09-21T18:47:02.584Z,3.15
2022-09-21T18:49:48.235Z,5.53
2022-09-21T18:52:15.079Z,6.50
2022-09-21T18:54:43.507Z,4.38
2022-09-21T18:57:14.654Z,4.50
2022-09-21T18:59:41.899Z,7.63
2022-09-21T19:02:14.820Z,4.38
2022-09-21T19:04:43.335Z,5.78
2022-09-21T19:07:17.558Z,10.02
2022-09-21T19:09:48.655Z,10.20
2022-09-21T19:12:27.951Z,8.35
2022-09-21T19:15:04.800Z,5.40
2022-09-21T19:17:40.631Z,6.40
2022-09-21T19:20:12.566Z,10.00
2022-09-21T19:22:39.413Z,6.55
2022-09-21T19:25:21.888Z,6.07
2022-09-21T19:28:00.904Z,7.45
2022-09-21T19:30:27.981Z,7.82
2022-09-21T19:32:59.782Z,7.45
2022-09-21T19:35:26.629Z,6.40
2022-09-21T19:37:55.165Z,9.32
2022-09-21T19:40:24.706Z,6.00
2022-09-21T19:43:11.245Z,7.25
2022-09-21T19:46:04.562Z,5.50
2022-09-21T19:48:51.692Z,4.90
2022-09-21T19:51:19.824Z,8.20
2022-09-21T19:54:11.229Z,5.72
2022-09-21T19:57:00.804Z,4.40
2022-09-21T19:59:45.796Z,5.80
2022-09-21T20:02:22.401Z,5.13
2022-09-21T20:04:56.104Z,5.43
2022-09-21T20:07:25.793Z,6.82
2022-09-21T20:10:15.973Z,7.88
2022-09-21T20:12:48.957Z,10.00
2022-09-21T20:15:29.911Z,13.75
2022-09-21T20:18:23.350Z,11.90
2022-09-21T20:20:50.099Z,13.95
2022-09-21T20:23:16.437Z,12.05
2022-09-21T20:26:03.268Z,9.60
2022-09-21T20:28:30.394Z,11.23
2022-09-21T20:30:56.997Z,13.93
2022-09-21T20:33:24.080Z,13.63
2022-09-21T20:35:52.860Z,12.95
2022-09-21T20:38:19.206Z,12.50
2022-09-21T20:40:45.531Z,6.78
2022-09-21T20:43:14.034Z,5.68
2022-09-21T20:45:40.838Z,4.75
2022-09-21T20:48:13.551Z,3.92
2022-09-21T20:50:45.448Z,4.93
2022-09-21T20:53:12.451Z,5.25
2022-09-21T20:55:39.377Z,6.40
2022-09-21T20:58:05.744Z,6.93
2022-09-21T21:00:32.150Z,6.10
2022-09-21T21:02:59.241Z,5.28
2022-09-21T21:05:29.069Z,3.13
2022-09-21T21:07:56.167Z,3.28
2022-09-21T21:10:22.579Z,7.00
2022-09-21T21:12:49.146Z,4.57
2022-09-21T21:15:15.809Z,6.50
2022-09-21T21:17:42.098Z,5.47
2022-09-21T21:20:08.794Z,7.78
2022-09-21T21:22:35.456Z,4.35
2022-09-21T21:25:01.771Z,6.30
2022-09-21T21:27:28.105Z,4.68
2022-09-21T21:29:54.797Z,5.78
2022-09-21T21:32:25.167Z,4.45
2022-09-21T21:34:51.960Z,6.97
2022-09-21T21:37:19.188Z,5.18
2022-09-21T21:39:45.866Z,4.68
2022-09-21T21:42:12.131Z,6.32
2022-09-21T21:44:38.489Z,7.05
2022-09-21T21:47:21.304Z,7.07
2022-09-21T21:49:51.172Z,3.33
2022-09-21T21:52:17.449Z,4.40
2022-09-21T21:54:43.895Z,6.38
2022-09-21T21:57:10.235Z,6.80
2022-09-21T21:59:36.735Z,3.33
2022-09-21T22:02:03.163Z,4.25
2022-09-21T22:04:29.634Z,4.60
2022-09-21T22:06:55.919Z,4.28
2022-09-21T22:09:22.270Z,3.90
2022-09-21T22:11:48.918Z,5.82
2022-09-21T22:14:15.200Z,4.10
2022-09-21T22:16:41.683Z,6.43
2022-09-21T22:19:08.495Z,7.13
2022-09-21T22:21:38.705Z,7.47
2022-09-21T22:24:05.497Z,9.43
2022-09-21T22:26:34.826Z,4.57
2022-09-21T22:29:01.980Z,6.22
2022-09-21T22:31:31.642Z,3.95
2022-09-21T22:33:58.654Z,5.25
2022-09-21T22:36:34.835Z,4.88
2022-09-21T22:39:01.514Z,4.25
2022-09-21T22:41:29.814Z,7.63
2022-09-21T22:43:56.928Z,4.85
2022-09-21T22:46:23.749Z,5.05
2022-09-21T22:48:50.444Z,4.63
2022-09-21T22:51:17.456Z,4.13
2022-09-21T22:53:44.057Z,6.20
2022-09-21T22:56:16.305Z,3.85
2022-09-21T22:58:43.811Z,7.55
2022-09-21T23:01:10.670Z,6.40
2022-09-21T23:03:37.812Z,4.40
2022-09-21T23:06:05.394Z,3.13
2022-09-21T23:08:31.978Z,5.65
2022-09-21T23:11:15.132Z,3.03
2022-09-21T23:13:41.964Z,4.57
2022-09-21T23:16:10.036Z,7.65
2022-09-21T23:18:37.147Z,3.70
2022-09-21T23:21:05.599Z,5.38
2022-09-21T23:23:32.957Z,4.30
2022-09-21T23:26:06.812Z,7.32
2022-09-21T23:28:33.909Z,2.80
2022-09-21T23:31:01.281Z,3.75
2022-09-21T23:33:31.632Z,5.57
2022-09-21T23:35:57.981Z,3.80
2022-09-21T23:38:24.248Z,4.80
2022-09-21T23:40:50.568Z,6.90
2022-09-21T23:43:16.868Z,4.30
2022-09-21T23:45:43.162Z,4.53
2022-09-21T23:48:09.436Z,4.43
2022-09-21T23:50:35.709Z,3.95
2022-09-21T23:53:03.237Z,5.43
2022-09-21T23:55:30.869Z,2.72
2022-09-21T23:57:57.119Z,4.00
